Time;durP1;ratioP1;P1;durP2;ratioP2;P2;SDS_P1;SDS_P2;PMS_P1;PMS_P2;Temp;Humidity;BMP_temperature;BMP_pressure;BME280_temperature;BME280_humidity;BME280_pressure;Samples;Min_cycle;Max_cycle;Signal;HPM_P1;HPM_P2
2023/03/15 00:00:29;;;;;;;0.00;0.00;;;1.50;99.90;;;;;;5032473;28;20103;-85
2023/03/15 00:02:55;;;;;;;0.00;0.00;;;1.60;99.90;;;;;;5049182;28;20048;-83
2023/03/15 00:05:21;;;;;;;0.00;0.00;;;1.60;99.90;;;;;;5049684;28;20041;-83
2023/03/15 00:07:47;;;;;;;0.00;0.00;;;1.70;99.90;;;;;;5049957;28;20108;-83
2023/03/15 00:10:13;;;;;;;0.10;0.10;;;1.70;99.90;;;;;;5049976;28;20060;-84
2023/03/15 00:12:41;;;;;;;0.10;0.10;;;1.90;99.90;;;;;;5048893;28;20513;-84
2023/03/15 00:15:08;;;;;;;0.00;0.00;;;2.10;99.90;;;;;;5047664;28;20124;-84
2023/03/15 00:17:34;;;;;;;0.08;0.08;;;2.20;99.90;;;;;;5048411;28;20052;-84
2023/03/15 00:20:00;;;;;;;0.28;0.28;;;2.30;99.90;;;;;;5046767;28;20047;-84
2023/03/15 00:22:26;;;;;;;0.00;0.00;;;2.20;99.90;;;;;;5047043;28;20048;-84
2023/03/15 00:24:51;;;;;;;0.03;0.03;;;2.10;99.90;;;;;;5046000;28;20049;-84
2023/03/15 00:27:17;;;;;;;0.10;0.10;;;2.00;99.90;;;;;;5047142;28;20049;-84
2023/03/15 00:29:43;;;;;;;0.63;0.63;;;1.80;99.90;;;;;;5050138;28;20045;-85
2023/03/15 00:32:09;;;;;;;0.30;0.30;;;1.70;99.90;;;;;;5080251;28;20091;-84
2023/03/15 00:34:34;;;;;;;0.00;0.00;;;1.80;99.90;;;;;;5047914;28;20048;-83
2023/03/15 00:37:00;;;;;;;0.00;0.00;;;1.70;99.90;;;;;;5045559;28;20052;-83
2023/03/15 00:39:26;;;;;;;0.00;0.00;;;1.60;99.90;;;;;;5047080;28;20517;-84
2023/03/15 00:41:55;;;;;;;0.00;0.00;;;1.50;99.90;;;;;;5048125;28;20108;-84
2023/03/15 00:44:25;;;;;;;0.98;0.90;;;1.40;99.90;;;;;;5048562;28;20049;-84
2023/03/15 00:46:51;;;;;;;0.47;0.47;;;1.30;99.90;;;;;;5048555;28;20109;-84
2023/03/15 00:49:17;;;;;;;0.00;0.00;;;1.20;99.90;;;;;;5046265;28;20053;-84
2023/03/15 00:51:42;;;;;;;1.40;1.00;;;1.10;99.90;;;;;;5029374;28;20517;-84
2023/03/15 00:54:09;;;;;;;0.00;0.00;;;1.00;99.90;;;;;;5048588;28;20045;-84
2023/03/15 00:56:35;;;;;;;0.00;0.00;;;0.90;99.90;;;;;;5048324;28;20045;-84
2023/03/15 00:59:01;;;;;;;0.00;0.00;;;0.90;99.90;;;;;;5048897;28;20398;-84
2023/03/15 01:01:28;;;;;;;0.00;0.00;;;0.80;99.90;;;;;;5048426;28;20037;-84
2023/03/15 01:03:55;;;;;;;0.08;0.08;;;0.70;99.90;;;;;;5048352;28;20104;-84
2023/03/15 01:06:23;;;;;;;0.10;0.10;;;0.60;99.90;;;;;;5048626;28;20041;-84
2023/03/15 01:08:50;;;;;;;1.45;0.85;;;0.50;99.90;;;;;;5049362;28;20041;-84
2023/03/15 01:11:23;;;;;;;0.10;0.10;;;0.40;99.90;;;;;;5048876;28;20045;-85
2023/03/15 01:13:52;;;;;;;0.00;0.00;;;1.70;99.90;;;;;;5049046;28;20045;-86
2023/03/15 01:16:19;;;;;;;0.00;0.00;;;0.40;99.90;;;;;;5049327;28;20045;-84
2023/03/15 01:18:45;;;;;;;1.52;0.45;;;0.30;99.90;;;;;;5047490;28;20041;-85
2023/03/15 01:21:13;;;;;;;0.08;0.08;;;0.20;99.90;;;;;;5046796;28;20159;-85
2023/03/15 01:23:40;;;;;;;0.32;0.32;;;0.20;99.90;;;;;;5045913;28;20056;-85
2023/03/15 01:26:09;;;;;;;0.00;0.00;;;0.30;99.90;;;;;;5047363;28;20048;-85
2023/03/15 01:28:35;;;;;;;0.00;0.00;;;0.60;99.90;;;;;;5048516;28;20053;-85
2023/03/15 01:31:01;;;;;;;0.00;0.00;;;0.80;99.90;;;;;;5047836;28;20041;-84
2023/03/15 01:33:27;;;;;;;1.58;1.48;;;1.00;99.90;;;;;;5047653;28;20178;-85
2023/03/15 01:36:04;;;;;;;0.00;0.00;;;1.10;99.90;;;;;;5047492;28;20064;-85
2023/03/15 01:38:30;;;;;;;0.00;0.00;;;1.10;99.90;;;;;;5047792;28;20049;-85
2023/03/15 01:40:57;;;;;;;15.27;1.00;;;1.10;99.90;;;;;;5051907;28;20045;-84
2023/03/15 01:43:25;;;;;;;0.00;0.00;;;1.00;99.90;;;;;;5056580;28;20045;-85
2023/03/15 01:46:13;;;;;;;0.00;0.00;;;0.80;99.90;;;;;;5052840;28;20041;-84
2023/03/15 01:48:45;;;;;;;0.00;0.00;;;0.70;99.90;;;;;;5051860;28;20529;-84
2023/03/15 01:51:24;;;;;;;0.22;0.22;;;0.60;99.90;;;;;;5050222;28;20053;-84
2023/03/15 01:54:15;;;;;;;0.03;0.03;;;0.50;99.90;;;;;;5050433;28;20061;-85
2023/03/15 01:56:47;;;;;;;0.00;0.00;;;0.40;99.90;;;;;;5051107;28;20405;-84
2023/03/15 01:59:20;;;;;;;0.00;0.00;;;0.20;99.90;;;;;;5051760;28;20047;-84
2023/03/15 02:01:49;;;;;;;0.00;0.00;;;0.20;99.90;;;;;;5050860;28;20529;-85
2023/03/15 02:04:23;;;;;;;0.00;0.00;;;0.10;99.90;;;;;;5050603;28;20132;-85
2023/03/15 02:06:57;;;;;;;0.10;0.10;;;0.00;99.90;;;;;;5052483;28;20045;-85
2023/03/15 02:09:34;;;;;;;0.10;0.10;;;-0.10;99.90;;;;;;5050374;28;20096;-84
2023/03/15 02:12:01;;;;;;;0.00;0.00;;;-0.20;99.90;;;;;;5051241;28;20606;-85
2023/03/15 02:14:27;;;;;;;0.15;0.15;;;-0.30;99.90;;;;;;5051054;28;20132;-85
2023/03/15 02:16:54;;;;;;;0.00;0.00;;;-0.40;99.90;;;;;;5050511;28;20060;-84
2023/03/15 02:20:05;;;;;;;0.00;0.00;;;-0.40;99.90;;;;;;5050414;28;20049;-85
2023/03/15 02:22:46;;;;;;;0.00;0.00;;;-0.50;99.90;;;;;;5049737;28;20581;-85
2023/03/15 02:25:21;;;;;;;0.00;0.00;;;-0.50;99.90;;;;;;5052733;28;20045;-85
2023/03/15 02:27:47;;;;;;;0.00;0.00;;;-0.50;99.90;;;;;;5057926;28;20047;-85
2023/03/15 02:30:13;;;;;;;0.00;0.00;;;-0.60;99.90;;;;;;5073184;28;20032;-85
2023/03/15 02:32:39;;;;;;;0.10;0.10;;;-0.60;99.90;;;;;;5070217;28;20025;-85
2023/03/15 02:35:05;;;;;;;0.03;0.03;;;-0.60;99.90;;;;;;5070977;28;20107;-85
2023/03/15 02:37:30;;;;;;;0.00;0.00;;;-0.60;99.90;;;;;;5065317;28;20045;-85
2023/03/15 02:39:56;;;;;;;0.00;0.00;;;-0.60;99.90;;;;;;5054544;28;20060;-85
2023/03/15 02:42:23;;;;;;;0.05;0.05;;;-0.70;99.90;;;;;;5053469;28;20040;-84
2023/03/15 02:44:50;;;;;;;0.00;0.00;;;-0.80;99.90;;;;;;5052033;28;20048;-85
2023/03/15 02:47:29;;;;;;;1.85;1.75;;;-0.80;99.90;;;;;;5050524;28;20069;-85
2023/03/15 02:49:55;;;;;;;0.00;0.00;;;-0.90;99.90;;;;;;5050446;28;20060;-85
2023/03/15 02:52:22;;;;;;;0.00;0.00;;;-0.90;99.90;;;;;;5050953;28;20053;-86
2023/03/15 02:54:48;;;;;;;0.00;0.00;;;-1.00;99.90;;;;;;5051015;28;20060;-85
2023/03/15 02:57:16;;;;;;;0.05;0.05;;;-1.00;99.90;;;;;;5051520;28;20053;-85
2023/03/15 02:59:41;;;;;;;0.00;0.00;;;-1.10;99.90;;;;;;5051961;28;20120;-85
2023/03/15 03:02:10;;;;;;;0.00;0.00;;;-1.20;99.90;;;;;;5051617;28;20076;-85
2023/03/15 03:04:36;;;;;;;0.00;0.00;;;-1.30;99.90;;;;;;5051238;28;20051;-85
2023/03/15 03:07:02;;;;;;;0.00;0.00;;;-1.30;99.90;;;;;;5050800;28;20037;-85
2023/03/15 03:09:28;;;;;;;0.00;0.00;;;-1.40;99.90;;;;;;5051143;28;20075;-85
2023/03/15 03:11:54;;;;;;;0.00;0.00;;;-1.40;99.90;;;;;;5050271;28;20045;-86
2023/03/15 03:14:22;;;;;;;0.00;0.00;;;-1.40;99.90;;;;;;5050417;28;20084;-85
2023/03/15 03:16:49;;;;;;;0.00;0.00;;;-1.40;99.90;;;;;;5050009;28;20049;-85
2023/03/15 03:19:14;;;;;;;0.00;0.00;;;-1.40;99.90;;;;;;5050605;28;20063;-85
2023/03/15 03:21:43;;;;;;;0.00;0.00;;;-1.40;99.90;;;;;;5050097;28;20124;-86
2023/03/15 03:24:09;;;;;;;0.03;0.03;;;-1.40;99.90;;;;;;5049526;28;20048;-86
2023/03/15 03:26:36;;;;;;;0.00;0.00;;;-1.40;99.90;;;;;;5049502;28;20044;-84
2023/03/15 03:29:04;;;;;;;0.20;0.20;;;-1.40;99.90;;;;;;5050074;28;20059;-85
2023/03/15 03:31:32;;;;;;;0.00;0.00;;;-1.40;99.90;;;;;;5049857;28;20059;-85
2023/03/15 03:33:59;;;;;;;0.68;0.65;;;-1.10;99.90;;;;;;5049025;28;20139;-85
2023/03/15 03:36:25;;;;;;;0.00;0.00;;;-1.10;99.90;;;;;;5048497;28;20086;-85
2023/03/15 03:38:55;;;;;;;0.00;0.00;;;-1.10;99.90;;;;;;5049250;28;20045;-86
2023/03/15 03:41:21;;;;;;;0.08;0.08;;;-1.20;99.90;;;;;;5051046;28;20120;-85
2023/03/15 03:43:47;;;;;;;0.00;0.00;;;-1.30;99.90;;;;;;5050609;28;20087;-85
2023/03/15 03:46:13;;;;;;;0.10;0.10;;;-1.40;99.90;;;;;;5050060;28;20132;-86
2023/03/15 03:48:39;;;;;;;0.03;0.03;;;-1.30;99.90;;;;;;5048728;28;20057;-85
2023/03/15 03:51:05;;;;;;;0.10;0.10;;;-1.40;99.90;;;;;;5050460;28;20045;-83
2023/03/15 03:53:31;;;;;;;0.00;0.00;;;-1.50;99.90;;;;;;5049134;28;20110;-85
2023/03/15 03:55:57;;;;;;;0.00;0.00;;;-1.50;99.90;;;;;;5050165;28;20445;-85
2023/03/15 03:58:22;;;;;;;0.00;0.00;;;-1.50;99.90;;;;;;5049625;28;20079;-85
2023/03/15 04:00:53;;;;;;;0.00;0.00;;;-1.50;99.90;;;;;;5051444;28;20486;-85
2023/03/15 04:03:18;;;;;;;4.97;0.63;;;-1.60;99.90;;;;;;5051713;28;20099;-87
2023/03/15 04:05:45;;;;;;;0.45;0.45;;;-1.70;99.90;;;;;;5050889;28;20525;-86
2023/03/15 04:08:10;;;;;;;0.00;0.00;;;-1.70;99.90;;;;;;5051773;28;20041;-85
2023/03/15 04:10:36;;;;;;;0.00;0.00;;;-1.80;99.90;;;;;;5050144;28;20059;-86
2023/03/15 04:13:02;;;;;;;0.10;0.10;;;-1.80;99.90;;;;;;5049267;28;20049;-85
2023/03/15 04:15:28;;;;;;;0.00;0.00;;;-1.80;99.90;;;;;;5050373;28;20660;-86
2023/03/15 04:17:56;;;;;;;0.00;0.00;;;-1.80;99.90;;;;;;5050489;28;20091;-85
2023/03/15 04:20:24;;;;;;;0.00;0.00;;;-1.80;99.90;;;;;;5050341;28;20041;-86
2023/03/15 04:22:49;;;;;;;0.10;0.10;;;-1.90;99.90;;;;;;5053032;28;20045;-85
2023/03/15 04:25:16;;;;;;;0.00;0.00;;;-1.90;99.90;;;;;;5054519;28;20049;-85
2023/03/15 04:27:42;;;;;;;0.00;0.00;;;-1.90;99.90;;;;;;5054384;28;20088;-85
2023/03/15 04:30:10;;;;;;;0.00;0.00;;;-1.90;99.90;;;;;;5051664;28;20048;-85
2023/03/15 04:32:36;;;;;;;0.10;0.10;;;-1.80;99.90;;;;;;5051643;28;20452;-86
2023/03/15 04:35:03;;;;;;;0.03;0.03;;;-1.70;99.90;;;;;;5051688;28;20052;-85
2023/03/15 04:37:30;;;;;;;0.93;0.85;;;-0.80;99.90;;;;;;5050711;28;20059;-85
2023/03/15 04:39:56;;;;;;;0.00;0.00;;;-1.80;99.90;;;;;;5049532;28;20052;-85
2023/03/15 04:42:24;;;;;;;0.00;0.00;;;-1.80;99.90;;;;;;5051520;28;20099;-85
2023/03/15 04:44:51;;;;;;;0.10;0.10;;;-1.90;99.90;;;;;;5050788;28;20100;-85
2023/03/15 04:47:16;;;;;;;0.00;0.00;;;-1.90;99.90;;;;;;5049411;28;20057;-85
2023/03/15 04:49:42;;;;;;;0.35;0.35;;;-1.70;99.90;;;;;;5052198;28;20059;-85
2023/03/15 04:52:08;;;;;;;0.00;0.00;;;-1.70;99.90;;;;;;5051491;28;20095;-84
2023/03/15 04:54:34;;;;;;;0.00;0.00;;;-1.80;99.90;;;;;;5049879;28;20084;-85
2023/03/15 04:56:59;;;;;;;0.47;0.47;;;-1.70;99.90;;;;;;5049814;28;20455;-85
2023/03/15 04:59:25;;;;;;;0.10;0.10;;;-1.70;99.90;;;;;;5049605;28;20045;-85
2023/03/15 05:01:51;;;;;;;0.00;0.00;;;-1.80;99.90;;;;;;5051375;28;20052;-86
2023/03/15 05:04:16;;;;;;;0.00;0.00;;;-1.80;99.90;;;;;;5048836;28;20479;-85
2023/03/15 05:06:42;;;;;;;0.00;0.00;;;-1.70;99.90;;;;;;5050189;28;20037;-85
2023/03/15 05:09:08;;;;;;;0.00;0.00;;;-1.60;99.90;;;;;;5050773;28;20080;-85
2023/03/15 05:11:33;;;;;;;0.00;0.00;;;-1.40;99.90;;;;;;5050400;28;20051;-85
2023/03/15 05:13:59;;;;;;;0.08;0.08;;;-1.40;99.90;;;;;;5054654;28;20041;-87
2023/03/15 05:16:25;;;;;;;0.00;0.00;;;-1.50;99.90;;;;;;5054907;28;20052;-85
2023/03/15 05:18:52;;;;;;;0.00;0.00;;;-1.60;99.90;;;;;;5054569;28;20175;-85
2023/03/15 05:21:18;;;;;;;0.00;0.00;;;-1.70;99.90;;;;;;5052766;28;20052;-85
2023/03/15 05:23:43;;;;;;;0.10;0.10;;;-1.80;99.90;;;;;;5052808;28;20040;-85
2023/03/15 05:26:09;;;;;;;0.00;0.00;;;-1.90;99.90;;;;;;5084480;28;20048;-85
2023/03/15 05:28:35;;;;;;;0.05;0.05;;;-1.90;99.90;;;;;;5052794;28;20056;-85
2023/03/15 05:31:01;;;;;;;0.00;0.00;;;-2.00;99.90;;;;;;5052722;28;20049;-85
2023/03/15 05:33:27;;;;;;;0.00;0.00;;;-2.10;99.90;;;;;;5052985;28;20130;-85
2023/03/15 05:35:55;;;;;;;0.00;0.00;;;-2.10;99.90;;;;;;5051801;28;20047;-85
2023/03/15 05:38:25;;;;;;;0.10;0.10;;;-2.20;99.90;;;;;;5053413;28;20051;-85
2023/03/15 05:40:51;;;;;;;0.00;0.00;;;-2.20;99.90;;;;;;5052096;28;20053;-84
2023/03/15 05:43:17;;;;;;;0.00;0.00;;;-2.20;99.90;;;;;;5051312;28;20490;-85
2023/03/15 05:45:47;;;;;;;0.00;0.00;;;-2.20;99.90;;;;;;5052998;28;20041;-86
2023/03/15 05:48:13;;;;;;;0.00;0.00;;;-2.20;99.90;;;;;;5053666;28;20104;-86
2023/03/15 05:50:39;;;;;;;0.00;0.00;;;-2.20;99.90;;;;;;5054344;28;20056;-83
2023/03/15 05:53:04;;;;;;;0.08;0.08;;;-2.10;99.90;;;;;;5054762;28;20536;-83
2023/03/15 05:55:30;;;;;;;0.10;0.10;;;-2.00;99.90;;;;;;5052653;28;20494;-85
2023/03/15 05:57:56;;;;;;;0.10;0.10;;;-2.00;99.90;;;;;;5053406;28;20078;-85
2023/03/15 06:00:22;;;;;;;0.00;0.00;;;-1.90;99.90;;;;;;5052940;28;20045;-86
2023/03/15 06:02:47;;;;;;;0.00;0.00;;;-1.80;99.90;;;;;;5052619;28;20123;-85
2023/03/15 06:05:13;;;;;;;0.10;0.10;;;-1.80;99.90;;;;;;5052985;28;20082;-85
2023/03/15 06:07:39;;;;;;;0.00;0.00;;;-1.80;99.90;;;;;;5053842;28;20502;-85
2023/03/15 06:10:05;;;;;;;0.00;0.00;;;-1.70;99.90;;;;;;5054482;28;20072;-84
2023/03/15 06:12:31;;;;;;;0.00;0.00;;;-1.60;99.90;;;;;;5052572;28;20060;-85
2023/03/15 06:14:56;;;;;;;0.00;0.00;;;-1.60;99.90;;;;;;5054019;28;20040;-85
2023/03/15 06:17:22;;;;;;;0.00;0.00;;;-1.40;99.90;;;;;;5053301;28;20049;-85
2023/03/15 06:19:48;;;;;;;0.17;0.17;;;-1.30;99.90;;;;;;5054594;28;20144;-85
2023/03/15 06:22:13;;;;;;;0.00;0.00;;;-1.20;99.90;;;;;;5055007;28;20090;-85
2023/03/15 06:24:39;;;;;;;0.05;0.05;;;-1.10;99.90;;;;;;5087294;28;20049;-84
2023/03/15 06:27:05;;;;;;;0.00;0.00;;;-1.10;99.90;;;;;;5058913;28;20037;-85
2023/03/15 06:29:30;;;;;;;0.00;0.00;;;-1.00;99.90;;;;;;5060223;28;20041;-85
2023/03/15 06:31:56;;;;;;;0.10;0.10;;;-1.00;99.90;;;;;;5053771;28;20041;-85
2023/03/15 06:34:22;;;;;;;0.63;0.63;;;-1.00;99.90;;;;;;5053731;28;20386;-85
2023/03/15 06:36:51;;;;;;;0.00;0.00;;;-1.00;99.90;;;;;;5055864;28;20064;-85
2023/03/15 06:39:17;;;;;;;0.10;0.10;;;-1.00;99.90;;;;;;5056280;28;20060;-83
2023/03/15 06:41:43;;;;;;;0.00;0.00;;;-0.90;99.90;;;;;;5056957;28;20041;-85
2023/03/15 06:44:09;;;;;;;0.65;0.57;;;-0.90;99.90;;;;;;5056397;28;20075;-84
2023/03/15 06:46:35;;;;;;;0.00;0.00;;;-0.90;99.90;;;;;;5056188;28;20041;-83
2023/03/15 06:49:02;;;;;;;0.00;0.00;;;-0.80;99.90;;;;;;5054833;28;20143;-84
2023/03/15 06:51:28;;;;;;;0.10;0.10;;;-0.80;99.90;;;;;;5052593;28;20061;-85
2023/03/15 06:53:54;;;;;;;0.00;0.00;;;-0.70;99.90;;;;;;5053072;28;20041;-85
2023/03/15 06:56:20;;;;;;;0.43;0.43;;;-0.70;99.90;;;;;;5047490;28;20048;-84
2023/03/15 06:58:45;;;;;;;0.00;0.00;;;-0.60;99.90;;;;;;5048621;28;20055;-84
2023/03/15 07:01:12;;;;;;;0.43;0.43;;;-0.50;99.90;;;;;;5051670;28;20072;-84
2023/03/15 07:03:39;;;;;;;0.00;0.00;;;-0.40;99.90;;;;;;5052406;28;20441;-82
2023/03/15 07:06:04;;;;;;;0.00;0.00;;;-0.30;99.90;;;;;;5049751;28;20074;-84
2023/03/15 07:08:30;;;;;;;0.03;0.03;;;-0.10;99.90;;;;;;5049176;28;20537;-85
2023/03/15 07:10:56;;;;;;;0.00;0.00;;;0.00;99.90;;;;;;5047303;28;20040;-84
2023/03/15 07:13:22;;;;;;;0.00;0.00;;;0.20;99.90;;;;;;5046516;28;20040;-84
2023/03/15 07:15:55;;;;;;;4.38;2.55;;;0.30;99.90;;;;;;5042853;28;20095;-84
2023/03/15 07:18:21;;;;;;;0.00;0.00;;;0.30;99.90;;;;;;5046124;28;20055;-84
2023/03/15 07:20:55;;;;;;;0.05;0.05;;;0.40;99.90;;;;;;5045292;28;20143;-84
2023/03/15 07:23:21;;;;;;;0.00;0.00;;;0.50;99.90;;;;;;5043878;28;20560;-85
2023/03/15 07:25:47;;;;;;;0.00;0.00;;;0.60;99.90;;;;;;5077094;28;20072;-84
2023/03/15 07:28:13;;;;;;;0.00;0.00;;;0.70;99.90;;;;;;5045307;28;20048;-84
2023/03/15 07:30:39;;;;;;;0.00;0.00;;;0.70;99.90;;;;;;5045181;28;20086;-85
2023/03/15 07:33:05;;;;;;;0.00;0.00;;;2.10;99.90;;;;;;5039657;28;20045;-84
2023/03/15 07:35:30;;;;;;;0.00;0.00;;;0.90;99.90;;;;;;5044087;28;20110;-84
2023/03/15 07:37:56;;;;;;;0.00;0.00;;;0.90;99.90;;;;;;5043817;28;20037;-84
2023/03/15 07:40:22;;;;;;;0.10;0.10;;;1.00;99.90;;;;;;5030960;28;20037;-84
2023/03/15 07:42:48;;;;;;;0.00;0.00;;;1.10;99.90;;;;;;5035950;28;20125;-85
2023/03/15 07:45:14;;;;;;;0.00;0.00;;;1.20;99.90;;;;;;5043548;28;20051;-84
2023/03/15 07:47:39;;;;;;;0.00;0.00;;;1.30;99.90;;;;;;5041853;28;20057;-84
2023/03/15 07:50:06;;;;;;;0.00;0.00;;;1.30;99.90;;;;;;5042836;28;20395;-85
2023/03/15 07:52:31;;;;;;;11.40;2.17;;;1.40;99.90;;;;;;5042741;28;20052;-85
2023/03/15 07:54:57;;;;;;;0.00;0.00;;;1.50;99.90;;;;;;5043144;28;20062;-85
2023/03/15 07:57:22;;;;;;;6.85;0.32;;;1.70;99.90;;;;;;5042858;28;20612;-84
2023/03/15 07:59:48;;;;;;;0.00;0.00;;;1.70;99.90;;;;;;5042817;28;20045;-85
2023/03/15 08:02:14;;;;;;;0.00;0.00;;;1.80;99.90;;;;;;5040677;28;20510;-85
2023/03/15 08:04:40;;;;;;;0.00;0.00;;;2.00;99.90;;;;;;5038318;28;20391;-85
2023/03/15 08:07:06;;;;;;;0.00;0.00;;;2.00;99.90;;;;;;5039400;28;20129;-85
2023/03/15 08:09:33;;;;;;;0.00;0.00;;;2.10;99.90;;;;;;5042169;28;20099;-85
2023/03/15 08:11:59;;;;;;;1.08;0.50;;;2.10;99.90;;;;;;5041669;28;20048;-86
2023/03/15 08:14:25;;;;;;;0.03;0.03;;;2.20;99.90;;;;;;5041155;28;20045;-85
2023/03/15 08:16:51;;;;;;;1.85;1.20;;;2.30;99.90;;;;;;5039604;28;20541;-84
2023/03/15 08:19:17;;;;;;;0.00;0.00;;;2.30;99.90;;;;;;5042922;28;20514;-84
2023/03/15 08:21:44;;;;;;;0.00;0.00;;;2.30;99.90;;;;;;5041434;28;20533;-85
2023/03/15 08:24:13;;;;;;;0.00;0.00;;;2.40;99.90;;;;;;5040867;28;20053;-85
2023/03/15 08:26:38;;;;;;;0.63;0.63;;;2.40;99.90;;;;;;5041140;28;20362;-84
2023/03/15 08:29:04;;;;;;;0.00;0.00;;;2.50;99.90;;;;;;5040740;28;20053;-85
2023/03/15 08:31:30;;;;;;;0.00;0.00;;;2.60;99.90;;;;;;5040416;28;20059;-85
2023/03/15 08:33:56;;;;;;;0.00;0.00;;;2.80;99.90;;;;;;5041880;28;20041;-85
2023/03/15 08:36:22;;;;;;;0.00;0.00;;;2.90;99.90;;;;;;5022844;28;20063;-85
2023/03/15 08:38:47;;;;;;;0.00;0.00;;;3.00;63.50;;;;;;5041842;28;20069;-85
2023/03/15 08:41:13;;;;;;;0.00;0.00;;;3.70;99.90;;;;;;5042630;28;20731;-84
2023/03/15 08:43:39;;;;;;;0.00;0.00;;;3.20;99.90;;;;;;5041782;28;20072;-85
2023/03/15 08:46:05;;;;;;;0.00;0.00;;;3.30;1.00;;;;;;5039905;28;20049;-85
2023/03/15 08:48:30;;;;;;;0.00;0.00;;;3.40;99.90;;;;;;5043814;28;20278;-85
2023/03/15 08:51:02;;;;;;;0.00;0.00;;;3.60;1.00;;;;;;5045944;28;20597;-85
2023/03/15 08:53:27;;;;;;;32.40;1.05;;;3.70;79.50;;;;;;5046186;28;20807;-84
2023/03/15 08:55:53;;;;;;;0.55;0.55;;;3.80;99.90;;;;;;5043371;28;20041;-85
2023/03/15 08:58:18;;;;;;;0.00;0.00;;;3.90;99.90;;;;;;5045319;28;20048;-85
2023/03/15 09:00:44;;;;;;;0.00;0.00;;;3.90;99.90;;;;;;5045286;28;20048;-84
2023/03/15 09:03:10;;;;;;;0.00;0.00;;;4.00;99.90;;;;;;5046117;28;20434;-85
2023/03/15 09:05:36;;;;;;;0.20;0.20;;;4.10;99.90;;;;;;5045229;28;20044;-85
2023/03/15 09:08:02;;;;;;;0.00;0.00;;;4.20;1.00;;;;;;5045474;28;20402;-85
2023/03/15 09:10:27;;;;;;;0.00;0.00;;;4.30;55.90;;;;;;5045486;28;20683;-84
2023/03/15 09:12:53;;;;;;;0.00;0.00;;;4.30;80.90;;;;;;5045744;28;20041;-84
2023/03/15 09:15:19;;;;;;;0.00;0.00;;;4.40;1.00;;;;;;5046347;28;20048;-84
2023/03/15 09:17:44;;;;;;;0.00;0.00;;;4.40;75.20;;;;;;5044778;28;20436;-84
2023/03/15 09:20:15;;;;;;;0.00;0.00;;;4.50;1.00;;;;;;5078473;28;20049;-84
2023/03/15 09:22:50;;;;;;;0.30;0.30;;;4.60;1.00;;;;;;5044071;28;20056;-84
2023/03/15 09:25:15;;;;;;;6.10;0.98;;;4.70;99.90;;;;;;5035709;28;20053;-84
2023/03/15 09:27:41;;;;;;;0.00;0.00;;;4.70;99.90;;;;;;5046833;28;20043;-84
2023/03/15 09:30:07;;;;;;;0.10;0.10;;;4.80;99.90;;;;;;5044869;28;20048;-84
2023/03/15 09:32:35;;;;;;;0.00;0.00;;;4.90;99.90;;;;;;5045200;28;20052;-84
2023/03/15 09:35:05;;;;;;;0.08;0.08;;;5.30;99.90;;;;;;5046259;28;20049;-84
2023/03/15 09:37:31;;;;;;;0.00;0.00;;;6.20;99.90;;;;;;5046237;28;20037;-84
2023/03/15 09:39:56;;;;;;;0.00;0.00;;;6.90;99.90;;;;;;5045480;28;20107;-84
2023/03/15 09:42:46;;;;;;;0.00;0.00;;;7.80;99.90;;;;;;5045246;28;20343;-84
2023/03/15 09:45:52;;;;;;;1.55;0.43;;;7.90;99.90;;;;;;5062071;28;20057;-84
2023/03/15 09:48:51;;;;;;;0.15;0.15;;;8.40;99.90;;;;;;5044305;28;20140;-84
2023/03/15 09:51:34;;;;;;;0.00;0.00;;;8.60;76.00;;;;;;5043701;28;20059;-85
2023/03/15 09:54:16;;;;;;;0.00;0.00;;;8.60;53.00;;;;;;5043516;28;20041;-84
2023/03/15 09:56:54;;;;;;;0.17;0.17;;;8.70;64.20;;;;;;5031159;28;20049;-84
2023/03/15 09:59:23;;;;;;;0.00;0.00;;;8.90;59.90;;;;;;5023611;28;20052;-85
2023/03/15 10:01:52;;;;;;;0.00;0.00;;;9.00;43.20;;;;;;5023788;28;20080;-85
2023/03/15 10:04:29;;;;;;;0.45;0.20;;;9.00;57.10;;;;;;5023858;28;20046;-85
2023/03/15 10:07:00;;;;;;;0.03;0.03;;;9.10;29.60;;;;;;5035016;28;20292;-85
2023/03/15 10:09:39;;;;;;;0.10;0.10;;;9.30;29.50;;;;;;5043332;28;20072;-84
2023/03/15 10:12:12;;;;;;;0.03;0.03;;;9.00;2.90;;;;;;5041590;28;20118;-85
2023/03/15 10:15:02;;;;;;;0.43;0.35;;;8.80;5.20;;;;;;5043019;28;20124;-85
2023/03/15 10:17:56;;;;;;;0.30;0.22;;;8.90;12.20;;;;;;5041721;28;20049;-85
2023/03/15 10:20:27;;;;;;;0.00;0.00;;;8.90;12.00;;;;;;5032166;28;20444;-85
2023/03/15 10:23:09;;;;;;;12.65;0.55;;;9.40;15.70;;;;;;5023816;28;20053;-85
2023/03/15 10:25:37;;;;;;;0.00;0.00;;;9.10;22.10;;;;;;5023493;28;20140;-85
2023/03/15 10:28:20;;;;;;;0.00;0.00;;;9.30;15.50;;;;;;5040204;28;20047;-85
2023/03/15 10:30:50;;;;;;;0.00;0.00;;;9.10;1.00;;;;;;5044911;28;20518;-85
2023/03/15 10:33:19;;;;;;;0.35;0.35;;;9.00;1.00;;;;;;5044681;28;20914;-85
2023/03/15 10:35:44;;;;;;;0.20;0.10;;;8.90;1.50;;;;;;5046948;28;20053;-85
2023/03/15 10:38:15;;;;;;;0.00;0.00;;;9.10;4.20;;;;;;5044661;28;20461;-85
2023/03/15 10:40:45;;;;;;;0.00;0.00;;;9.50;7.80;;;;;;5043212;28;20049;-84
2023/03/15 10:43:17;;;;;;;0.45;0.28;;;9.60;14.00;;;;;;5042509;28;20048;-84
2023/03/15 10:46:08;;;;;;;0.00;0.00;;;9.40;1.00;;;;;;5043922;28;20052;-84
2023/03/15 10:48:36;;;;;;;0.00;0.00;;;9.80;1.00;;;;;;5038852;28;20120;-84
2023/03/15 10:51:23;;;;;;;0.00;0.00;;;9.90;1.00;;;;;;5042208;28;20152;-85
2023/03/15 10:54:21;;;;;;;0.00;0.00;;;10.30;1.00;;;;;;5043531;28;20048;-84
2023/03/15 10:57:14;;;;;;;0.10;0.10;;;10.10;1.00;;;;;;5043652;28;20051;-84
2023/03/15 11:00:16;;;;;;;0.00;0.00;;;9.70;1.00;;;;;;5045196;28;20049;-84
2023/03/15 11:02:49;;;;;;;0.90;0.60;;;9.60;1.00;;;;;;5045009;28;20083;-84
2023/03/15 11:05:17;;;;;;;0.20;0.20;;;9.10;1.00;;;;;;5045344;28;20045;-84
2023/03/15 11:07:57;;;;;;;0.00;0.00;;;9.00;1.00;;;;;;5044707;28;20051;-84
2023/03/15 11:10:26;;;;;;;0.35;0.20;;;8.50;1.00;;;;;;5044616;28;20045;-84
2023/03/15 11:13:13;;;;;;;0.10;0.10;;;8.50;1.00;;;;;;5046153;28;20090;-84
2023/03/15 11:15:48;;;;;;;0.13;0.08;;;8.80;1.00;;;;;;5047025;28;20548;-84
2023/03/15 11:18:23;;;;;;;0.00;0.00;;;9.00;1.00;;;;;;5045372;28;20076;-84
2023/03/15 11:20:53;;;;;;;0.20;0.20;;;9.40;1.00;;;;;;5044602;28;20049;-84
2023/03/15 11:23:28;;;;;;;0.00;0.00;;;9.90;1.00;;;;;;5043030;28;20300;-84
2023/03/15 11:25:55;;;;;;;0.00;0.00;;;9.50;1.00;;;;;;5044298;28;20075;-84
2023/03/15 11:28:30;;;;;;;0.35;0.35;;;9.00;1.00;;;;;;5044855;28;20052;-84
2023/03/15 11:31:00;;;;;;;0.00;0.00;;;8.80;1.00;;;;;;5043699;28;20049;-84
2023/03/15 11:33:32;;;;;;;0.00;0.00;;;8.60;1.00;;;;;;5044768;28;20041;-84
2023/03/15 11:36:01;;;;;;;0.10;0.10;;;8.60;1.00;;;;;;5043853;28;20052;-84
2023/03/15 11:38:33;;;;;;;0.00;0.00;;;9.00;1.00;;;;;;5044309;28;20037;-85
2023/03/15 11:41:08;;;;;;;0.00;0.00;;;9.00;1.00;;;;;;5043494;28;20371;-85
2023/03/15 11:43:48;;;;;;;0.00;0.00;;;9.10;1.00;;;;;;5043886;28;20107;-84
2023/03/15 11:46:32;;;;;;;0.00;0.00;;;9.30;1.00;;;;;;5043030;28;20091;-85
2023/03/15 11:49:16;;;;;;;0.15;0.13;;;9.70;1.00;;;;;;5044177;28;20136;-84
2023/03/15 11:51:42;;;;;;;0.15;0.10;;;9.80;1.00;;;;;;5043117;28;20056;-85
2023/03/15 11:54:12;;;;;;;0.10;0.10;;;10.00;1.00;;;;;;5041646;28;20078;-84
2023/03/15 11:56:47;;;;;;;0.08;0.08;;;10.00;1.00;;;;;;5045964;28;20041;-84
2023/03/15 11:59:24;;;;;;;0.00;0.00;;;10.60;1.00;;;;;;5046597;28;20402;-84
2023/03/15 12:01:54;;;;;;;1.75;0.40;;;11.00;1.00;;;;;;5043621;28;20047;-84
2023/03/15 12:04:32;;;;;;;0.08;0.08;;;11.50;1.00;;;;;;5046825;28;20045;-84
2023/03/15 12:07:28;;;;;;;0.20;0.20;;;11.50;1.00;;;;;;5045590;28;20055;-84
2023/03/15 12:10:02;;;;;;;0.73;0.50;;;11.60;1.00;;;;;;5042985;28;20098;-84
2023/03/15 12:12:27;;;;;;;0.52;0.45;;;11.90;1.00;;;;;;5042574;28;20307;-84
2023/03/15 12:15:04;;;;;;;0.40;0.22;;;12.10;1.00;;;;;;5041808;28;20075;-84
2023/03/15 12:17:29;;;;;;;0.00;0.00;;;11.90;1.00;;;;;;5042291;28;20057;-84
2023/03/15 12:20:08;;;;;;;0.00;0.00;;;11.90;1.00;;;;;;5042865;28;20045;-84
2023/03/15 12:22:35;;;;;;;0.00;0.00;;;12.10;1.00;;;;;;5042870;28;20041;-84
2023/03/15 12:25:17;;;;;;;0.28;0.20;;;12.40;1.00;;;;;;5042071;28;20445;-85
2023/03/15 12:27:49;;;;;;;0.00;0.00;;;11.90;1.00;;;;;;5040843;28;20110;-84
2023/03/15 12:30:41;;;;;;;0.13;0.08;;;11.70;1.00;;;;;;5045594;28;20049;-84
2023/03/15 12:33:19;;;;;;;0.00;0.00;;;11.70;1.00;;;;;;5042934;28;20576;-84
2023/03/15 12:35:47;;;;;;;0.00;0.00;;;11.80;1.00;;;;;;5043488;28;20127;-84
2023/03/15 12:38:22;;;;;;;0.20;0.05;;;12.00;1.00;;;;;;5043432;28;20476;-84
2023/03/15 12:40:56;;;;;;;0.00;0.00;;;12.20;1.00;;;;;;5041374;28;20161;-84
2023/03/15 12:43:39;;;;;;;0.00;0.00;;;12.50;1.00;;;;;;5042940;28;20060;-84
2023/03/15 12:46:06;;;;;;;0.77;0.65;;;12.40;1.00;;;;;;5044304;28;20056;-84
2023/03/15 12:48:32;;;;;;;0.00;0.00;;;11.90;1.00;;;;;;5046441;28;20183;-84
2023/03/15 12:51:00;;;;;;;0.00;0.00;;;11.70;1.00;;;;;;5047801;28;20049;-84
2023/03/15 12:53:35;;;;;;;0.00;0.00;;;11.50;1.00;;;;;;5046245;28;20048;-84
2023/03/15 12:56:16;;;;;;;0.15;0.13;;;10.70;1.00;;;;;;5046767;28;20055;-84
2023/03/15 12:58:43;;;;;;;0.22;0.22;;;10.40;1.00;;;;;;5048020;28;20080;-84
2023/03/15 13:01:15;;;;;;;5.28;1.27;;;11.50;1.00;;;;;;5045154;28;20053;-84
2023/03/15 13:03:41;;;;;;;0.20;0.20;;;11.10;1.00;;;;;;5045829;28;20061;-85
2023/03/15 13:06:27;;;;;;;0.05;0.05;;;11.60;1.00;;;;;;5046855;28;20387;-84